createdAt,value
2018-04-20T16:16:18.337Z,30.61
2018-04-20T16:16:44.497Z,30.68
2018-04-20T16:17:10.645Z,30.59
2018-04-20T16:17:36.786Z,30.63
2018-04-20T16:18:02.976Z,30.55
2018-04-20T16:18:29.121Z,30.62
2018-04-20T16:18:55.291Z,30.59
2018-04-20T16:19:21.434Z,30.55
2018-04-20T16:19:47.580Z,30.55
2018-04-20T16:20:13.720Z,30.57
2018-04-20T16:20:39.864Z,30.61
2018-04-20T16:21:06.012Z,30.61
2018-04-20T16:21:32.152Z,30.53
2018-04-20T16:21:58.301Z,30.53
2018-04-20T16:22:24.446Z,30.5
2018-04-20T16:22:50.592Z,30.32
2018-04-20T16:23:16.773Z,30.25
2018-04-20T16:23:42.876Z,30.27
2018-04-20T16:24:09.023Z,30.28
2018-04-20T16:24:35.163Z,30.19
2018-04-20T16:25:01.308Z,30.3
2018-04-20T16:25:27.455Z,30.24
2018-04-20T16:25:53.597Z,30.28
2018-04-20T16:26:19.749Z,30.25
2018-04-20T16:26:45.913Z,30.21
2018-04-20T16:27:12.055Z,30.24
2018-04-20T16:27:38.199Z,30.19
2018-04-20T16:28:04.338Z,30.18
2018-04-20T16:28:30.487Z,30.18
2018-04-20T16:28:56.628Z,30.16
2018-04-20T16:29:22.800Z,30.13
2018-04-20T16:29:48.936Z,30.19
2018-04-20T16:30:15.114Z,30.21
2018-04-20T16:30:41.259Z,30.23
2018-04-20T16:31:07.402Z,30.3
2018-04-20T16:31:33.567Z,30.27
2018-04-20T16:31:59.716Z,30.28
2018-04-20T16:32:25.860Z,30.18
2018-04-20T16:32:52.009Z,30.27
2018-04-20T16:33:18.187Z,30.21
2018-04-20T16:33:44.616Z,30.3
2018-04-20T16:34:10.763Z,30.27
2018-04-20T16:34:36.904Z,30.21
2018-04-20T16:35:03.080Z,30.34
2018-04-20T16:35:29.224Z,30.24
2018-04-20T16:35:55.390Z,30.27
2018-04-20T16:36:21.537Z,30.28
2018-04-20T16:36:47.703Z,30.24
2018-04-20T16:37:13.850Z,30.19
2018-04-20T16:37:39.992Z,30.25
2018-04-20T16:38:06.138Z,30.21
2018-04-20T16:38:32.297Z,30.23
2018-04-20T16:38:58.525Z,30.21
2018-04-20T16:39:24.668Z,30.16
2018-04-20T16:39:50.799Z,30.25
2018-04-20T16:40:16.944Z,30.28
2018-04-20T16:40:43.112Z,30.16
2018-04-20T16:41:09.282Z,30.25
2018-04-20T16:41:35.427Z,30.23
2018-04-20T16:42:01.570Z,30.24
2018-04-20T16:42:27.710Z,30.21
2018-04-20T16:42:53.880Z,30.25
2018-04-20T16:43:20.023Z,30.19
2018-04-20T16:43:46.163Z,30.24
2018-04-20T16:44:12.305Z,30.3
2018-04-20T16:44:38.477Z,30.25
2018-04-20T16:45:04.646Z,30.25
2018-04-20T16:45:30.783Z,30.21
2018-04-20T16:45:56.928Z,30.3
2018-04-20T16:46:23.102Z,30.15
2018-04-20T16:46:49.252Z,30.12
2018-04-20T16:47:15.398Z,30.02
2018-04-20T16:47:41.642Z,30.09
2018-04-20T16:48:07.788Z,30.08
2018-04-20T16:48:33.940Z,30.06
2018-04-20T16:49:00.080Z,30.06
2018-04-20T16:49:26.230Z,29.98
2018-04-20T16:49:52.396Z,29.98
2018-04-20T16:50:18.830Z,29.97
2018-04-20T16:50:45.283Z,29.93
2018-04-20T16:51:11.469Z,29.94
2018-04-20T16:51:37.607Z,29.93
2018-04-20T16:52:03.758Z,29.97
2018-04-20T16:52:29.903Z,29.95
2018-04-20T16:52:56.070Z,29.91
2018-04-20T16:53:22.209Z,30.08
2018-04-20T16:53:48.349Z,30.06
2018-04-20T16:54:14.538Z,29.93
2018-04-20T16:54:40.688Z,30.05
2018-04-20T16:55:06.870Z,30.03
2018-04-20T16:55:33.022Z,30.03
2018-04-20T16:55:59.193Z,29.88
2018-04-20T16:56:25.342Z,29.88
2018-04-20T16:56:51.478Z,29.93
2018-04-20T16:57:17.624Z,29.97
2018-04-20T16:57:43.768Z,29.82
2018-04-20T16:58:09.913Z,29.88
2018-04-20T16:58:36.064Z,29.79
2018-04-20T16:59:02.201Z,29.94
2018-04-20T16:59:28.378Z,29.97
2018-04-20T16:59:54.514Z,29.93
2018-04-20T17:00:20.656Z,30.03
2018-04-20T17:00:46.803Z,30.02
2018-04-20T17:01:12.948Z,29.98
2018-04-20T17:01:39.099Z,30
2018-04-20T17:02:05.245Z,30.02
2018-04-20T17:02:31.581Z,30.08
2018-04-20T17:02:57.730Z,29.98
2018-04-20T17:03:23.870Z,30.02
2018-04-20T17:03:50.052Z,30.05
2018-04-20T17:04:16.238Z,30.02
2018-04-20T17:04:42.406Z,30.03
2018-04-20T17:05:08.554Z,29.91
2018-04-20T17:05:34.695Z,29.93
2018-04-20T17:06:00.842Z,29.91
2018-04-20T17:06:27.012Z,29.97
2018-04-20T17:06:53.160Z,29.84
2018-04-20T17:07:19.299Z,29.98
2018-04-20T17:07:45.460Z,30.03
2018-04-20T17:08:11.614Z,29.95
2018-04-20T17:08:37.754Z,29.94
2018-04-20T17:09:03.897Z,29.94
2018-04-20T17:09:30.050Z,29.88
2018-04-20T17:09:56.191Z,30.03
2018-04-20T17:10:22.358Z,30
2018-04-20T17:10:48.506Z,29.98
2018-04-20T17:11:14.651Z,30.05
2018-04-20T17:11:40.873Z,30.06
2018-04-20T17:12:06.993Z,29.98
2018-04-20T17:12:33.188Z,30
2018-04-20T17:12:59.280Z,30.02
2018-04-20T17:13:25.444Z,30.03
2018-04-20T17:13:51.613Z,29.95
2018-04-20T17:14:17.761Z,30.06
2018-04-20T17:14:43.909Z,30.03
2018-04-20T17:15:10.047Z,30
2018-04-20T17:15:36.192Z,29.98
2018-04-20T17:16:02.342Z,30
2018-04-20T17:16:28.479Z,30.06
2018-04-20T17:16:54.651Z,30.02
2018-04-20T17:17:20.804Z,30.03
2018-04-20T17:17:47.020Z,30
2018-04-20T17:18:13.182Z,29.98
2018-04-20T17:18:39.302Z,30.03
2018-04-20T17:19:05.452Z,30
2018-04-20T17:19:31.628Z,30.05
2018-04-20T17:19:57.771Z,30.03
2018-04-20T17:20:23.916Z,30.1
2018-04-20T17:20:50.063Z,30.09
2018-04-20T17:21:16.199Z,30.19
2018-04-20T17:21:42.369Z,30.13
2018-04-20T17:22:08.518Z,30.12
2018-04-20T17:22:34.689Z,30.06
2018-04-20T17:23:00.816Z,30.08
2018-04-20T17:23:26.966Z,29.98
2018-04-20T17:23:53.111Z,29.98
2018-04-20T17:24:19.279Z,29.97
2018-04-20T17:24:45.449Z,29.9
2018-04-20T17:25:11.614Z,29.95
2018-04-20T17:25:37.788Z,29.86
2018-04-20T17:26:03.930Z,29.95
2018-04-20T17:26:30.075Z,29.95
2018-04-20T17:26:56.217Z,29.95
2018-04-20T17:27:22.356Z,29.93
2018-04-20T17:27:48.500Z,30.1
2018-04-20T17:28:14.646Z,30.03
2018-04-20T17:28:40.788Z,29.93
2018-04-20T17:29:06.931Z,29.93
2018-04-20T17:29:33.071Z,29.97
2018-04-20T17:29:59.220Z,29.95
2018-04-20T17:30:25.366Z,29.88
2018-04-20T17:30:51.501Z,29.87
2018-04-20T17:31:17.654Z,29.75
2018-04-20T17:31:43.843Z,29.79
2018-04-20T17:32:09.983Z,29.76
2018-04-20T17:32:36.126Z,29.75
2018-04-20T17:33:02.294Z,29.75
2018-04-20T17:33:28.457Z,29.76
2018-04-20T17:33:54.616Z,29.86
2018-04-20T17:34:20.762Z,29.78
2018-04-20T17:34:46.937Z,29.75
2018-04-20T17:35:13.157Z,29.73
2018-04-20T17:35:39.258Z,29.75
2018-04-20T17:36:05.423Z,29.76
2018-04-20T17:36:31.633Z,29.81
2018-04-20T17:36:57.778Z,29.73
2018-04-20T17:37:23.951Z,29.78
2018-04-20T17:37:50.091Z,29.75
2018-04-20T17:38:16.282Z,29.81
2018-04-20T17:38:42.461Z,29.79
2018-04-20T17:39:08.609Z,29.73
2018-04-20T17:39:34.791Z,29.78
2018-04-20T17:40:00.941Z,29.76
2018-04-20T17:40:27.088Z,29.75
2018-04-20T17:40:53.275Z,29.68
2018-04-20T17:41:19.449Z,29.66
2018-04-20T17:41:45.624Z,29.6
2018-04-20T17:42:11.775Z,29.59
2018-04-20T17:42:37.951Z,29.59
2018-04-20T17:43:04.117Z,29.57
2018-04-20T17:43:30.331Z,29.54
2018-04-20T17:43:56.475Z,29.54
2018-04-20T17:44:22.613Z,29.57
2018-04-20T17:44:48.763Z,29.56
2018-04-20T17:45:14.907Z,29.57
2018-04-20T17:45:41.063Z,29.51
2018-04-20T17:46:07.240Z,29.53
2018-04-20T17:46:33.384Z,29.5
2018-04-20T17:46:59.524Z,29.51
2018-04-20T17:47:25.668Z,29.44
2018-04-20T17:47:51.805Z,29.5
2018-04-20T17:48:17.966Z,29.5
2018-04-20T17:48:44.131Z,29.53
2018-04-20T17:49:10.281Z,29.53
2018-04-20T17:49:36.419Z,29.42
2018-04-20T17:50:02.562Z,29.49
2018-04-20T17:50:28.737Z,29.47
2018-04-20T17:50:54.881Z,29.47
2018-04-20T17:51:21.036Z,29.47
2018-04-20T17:51:47.180Z,29.51
2018-04-20T17:52:13.325Z,29.44
2018-04-20T17:52:39.475Z,29.49
2018-04-20T17:53:05.616Z,29.42
2018-04-20T17:53:31.761Z,29.44
2018-04-20T17:53:57.909Z,29.45
2018-04-20T17:54:24.047Z,29.5
2018-04-20T17:54:50.193Z,29.45
2018-04-20T17:55:16.364Z,29.36
2018-04-20T17:55:42.503Z,29.41
2018-04-20T17:56:08.669Z,29.44
2018-04-20T17:56:34.813Z,29.41
2018-04-20T17:57:00.966Z,29.42
2018-04-20T17:57:27.104Z,29.41
2018-04-20T17:57:53.245Z,29.36
2018-04-20T17:58:19.424Z,29.45
2018-04-20T17:58:45.572Z,29.39
2018-04-20T17:59:11.739Z,29.41
2018-04-20T17:59:37.967Z,29.38
2018-04-20T18:00:04.047Z,29.41
2018-04-20T18:00:30.188Z,29.41
2018-04-20T18:00:56.333Z,29.47
2018-04-20T18:01:22.499Z,29.44
2018-04-20T18:01:48.667Z,29.35
2018-04-20T18:02:14.813Z,29.36
2018-04-20T18:02:40.959Z,29.32
2018-04-20T18:03:07.111Z,29.35
2018-04-20T18:03:33.253Z,29.23
2018-04-20T18:03:59.395Z,29.27
2018-04-20T18:04:25.546Z,29.29
2018-04-20T18:04:51.687Z,29.23
2018-04-20T18:05:17.864Z,29.27
2018-04-20T18:05:43.976Z,29.23
2018-04-20T18:06:10.120Z,29.29
2018-04-20T18:06:36.285Z,29.29
2018-04-20T18:07:02.429Z,29.34
2018-04-20T18:07:28.602Z,29.24
2018-04-20T18:07:54.775Z,29.26
2018-04-20T18:08:20.913Z,29.12
2018-04-20T18:08:47.088Z,29.26
2018-04-20T18:09:13.234Z,29.19
2018-04-20T18:09:39.379Z,29.14
2018-04-20T18:10:05.529Z,29.13
2018-04-20T18:10:31.670Z,29.12
2018-04-20T18:10:57.805Z,29.16
2018-04-20T18:11:23.955Z,29.13
2018-04-20T18:11:50.106Z,29.13
2018-04-20T18:12:16.267Z,29.08
2018-04-20T18:12:42.413Z,29.1
2018-04-20T18:13:08.554Z,29.1
2018-04-20T18:13:34.709Z,29.07
2018-04-20T18:14:00.852Z,29.12
2018-04-20T18:14:26.997Z,29.04
2018-04-20T18:14:53.156Z,29.01
2018-04-20T18:15:19.300Z,29.08
2018-04-20T18:15:45.447Z,29.04
2018-04-20T18:16:11.612Z,28.96
2018-04-20T18:16:37.751Z,28.89
2018-04-20T18:17:03.896Z,28.93
2018-04-20T18:17:30.058Z,28.96
2018-04-20T18:17:56.250Z,28.93
2018-04-20T18:18:22.393Z,28.94
2018-04-20T18:18:48.541Z,28.88
2018-04-20T18:19:14.675Z,29.01
2018-04-20T18:19:40.815Z,28.85
2018-04-20T18:20:06.963Z,28.85
2018-04-20T18:20:33.126Z,28.86
2018-04-20T18:20:59.505Z,28.86
2018-04-20T18:21:25.679Z,28.85
2018-04-20T18:21:51.760Z,28.84
2018-04-20T18:22:18.060Z,28.86
2018-04-20T18:22:44.286Z,28.84
2018-04-20T18:23:10.525Z,28.88
2018-04-20T18:23:36.620Z,28.89
2018-04-20T18:24:02.765Z,28.85
2018-04-20T18:24:28.922Z,28.75
2018-04-20T18:24:55.067Z,28.78
2018-04-20T18:25:21.212Z,28.75
2018-04-20T18:25:47.355Z,28.66
2018-04-20T18:26:13.497Z,28.78
2018-04-20T18:26:39.672Z,28.75
2018-04-20T18:27:05.810Z,28.66
2018-04-20T18:27:31.954Z,28.76
2018-04-20T18:27:58.104Z,28.62
2018-04-20T18:28:24.263Z,28.75
2018-04-20T18:28:50.401Z,28.69
2018-04-20T18:29:16.545Z,28.7
2018-04-20T18:29:42.688Z,28.69
2018-04-20T18:30:08.827Z,28.63
2018-04-20T18:30:34.984Z,28.69
2018-04-20T18:31:01.140Z,28.64
2018-04-20T18:31:27.286Z,28.6
2018-04-20T18:31:53.428Z,28.57
2018-04-20T18:32:19.578Z,28.52
2018-04-20T18:32:45.730Z,28.48
2018-04-20T18:33:11.876Z,28.41
2018-04-20T18:33:38.024Z,28.44
2018-04-20T18:34:04.161Z,28.41
2018-04-20T18:34:30.304Z,28.38
2018-04-20T18:34:56.446Z,28.38
2018-04-20T18:35:22.588Z,28.29
2018-04-20T18:35:48.734Z,28.26
2018-04-20T18:36:14.883Z,28.25
2018-04-20T18:36:41.047Z,28.32
2018-04-20T18:37:07.173Z,28.22
2018-04-20T18:37:33.386Z,28.25
2018-04-20T18:37:59.523Z,28.22
2018-04-20T18:38:25.664Z,28.26
2018-04-20T18:38:51.812Z,28.19
2018-04-20T18:39:17.953Z,28.25
2018-04-20T18:39:44.093Z,28.25
2018-04-20T18:40:10.267Z,28.29
2018-04-20T18:40:36.413Z,28.23
2018-04-20T18:41:02.578Z,28.25
2018-04-20T18:41:28.725Z,28.19
2018-04-20T18:41:54.867Z,28.19
2018-04-20T18:42:21.061Z,28.15
2018-04-20T18:42:47.201Z,28.08
2018-04-20T18:43:13.345Z,28.1
2018-04-20T18:43:39.492Z,28.02
2018-04-20T18:44:05.629Z,28.1
2018-04-20T18:44:31.798Z,28.02
2018-04-20T18:44:57.969Z,28
2018-04-20T18:45:24.129Z,27.9
2018-04-20T18:45:50.273Z,27.92
2018-04-20T18:46:16.423Z,27.86
2018-04-20T18:46:42.568Z,27.92
2018-04-20T18:47:08.706Z,27.86
2018-04-20T18:47:34.881Z,27.83
2018-04-20T18:48:01.017Z,27.89
2018-04-20T18:48:27.169Z,27.85
2018-04-20T18:48:53.313Z,27.78
2018-04-20T18:49:19.516Z,27.74
2018-04-20T18:49:45.665Z,27.77
2018-04-20T18:50:11.887Z,27.74
2018-04-20T18:50:37.970Z,27.75
2018-04-20T18:51:04.118Z,27.74
2018-04-20T18:51:30.260Z,27.68
2018-04-20T18:51:56.431Z,27.7
2018-04-20T18:52:22.580Z,27.65
2018-04-20T18:52:48.726Z,27.68
2018-04-20T18:53:14.874Z,27.71
2018-04-20T18:53:41.016Z,27.58
2018-04-20T18:54:07.170Z,27.59
2018-04-20T18:54:33.317Z,27.58
2018-04-20T18:54:59.455Z,27.58
2018-04-20T18:55:25.595Z,27.54
2018-04-20T18:55:51.738Z,27.52
2018-04-20T18:56:17.878Z,27.44
2018-04-20T18:56:44.022Z,27.47
2018-04-20T18:57:10.172Z,27.4
2018-04-20T18:57:36.310Z,27.42
2018-04-20T18:58:02.451Z,27.45
2018-04-20T18:58:28.593Z,27.44
2018-04-20T18:58:54.737Z,27.36
2018-04-20T18:59:20.873Z,27.3
2018-04-20T18:59:47.022Z,27.32
2018-04-20T19:00:13.186Z,27.3
2018-04-20T19:00:39.328Z,27.33
2018-04-20T19:01:05.468Z,27.27
2018-04-20T19:01:31.642Z,27.27
2018-04-20T19:01:57.785Z,27.3
2018-04-20T19:02:23.927Z,27.25
2018-04-20T19:02:50.095Z,27.3
2018-04-20T19:03:16.226Z,27.3
2018-04-20T19:03:42.372Z,27.26
2018-04-20T19:04:08.515Z,27.21
2018-04-20T19:04:34.654Z,27.3
2018-04-20T19:05:00.797Z,27.26
2018-04-20T19:05:26.970Z,27.21
2018-04-20T19:05:53.114Z,27.18
2018-04-20T19:06:19.282Z,27.14
2018-04-20T19:06:45.444Z,27.15
2018-04-20T19:07:11.595Z,27.07
2018-04-20T19:07:37.756Z,27.02
2018-04-20T19:08:03.897Z,27
2018-04-20T19:08:30.104Z,26.97
2018-04-20T19:08:56.209Z,27.05
2018-04-20T19:09:22.350Z,27.07
2018-04-20T19:09:48.489Z,26.93
2018-04-20T19:10:14.631Z,26.97
2018-04-20T19:10:40.770Z,26.99
2018-04-20T19:11:06.936Z,26.99
2018-04-20T19:11:33.076Z,26.89
2018-04-20T19:11:59.228Z,26.92
2018-04-20T19:12:25.372Z,26.88
2018-04-20T19:12:51.585Z,26.95
2018-04-20T19:13:17.731Z,26.85
2018-04-20T19:13:43.892Z,26.85
2018-04-20T19:14:10.052Z,26.89
2018-04-20T19:14:36.200Z,26.89
2018-04-20T19:15:02.347Z,26.88
2018-04-20T19:15:28.522Z,26.92
2018-04-20T19:15:54.686Z,26.88
2018-04-20T19:16:20.835Z,26.84
2018-04-20T19:16:46.971Z,26.89
2018-04-20T19:17:13.113Z,26.89
2018-04-20T19:17:39.253Z,26.85
2018-04-20T19:18:05.399Z,26.95
2018-04-20T19:18:31.539Z,26.96
2018-04-20T19:18:57.685Z,26.96
2018-04-20T19:19:23.826Z,26.93
2018-04-20T19:19:50.017Z,26.99
2018-04-20T19:20:16.155Z,26.93
2018-04-20T19:20:42.383Z,26.95
2018-04-20T19:21:08.465Z,26.92
2018-04-20T19:21:34.607Z,26.93
2018-04-20T19:22:00.768Z,26.95
2018-04-20T19:22:26.920Z,26.89
2018-04-20T19:22:53.062Z,26.95
2018-04-20T19:23:19.206Z,26.88
2018-04-20T19:23:45.377Z,26.95
2018-04-20T19:24:11.544Z,26.81
2018-04-20T19:24:37.717Z,26.95
2018-04-20T19:25:03.868Z,26.99
2018-04-20T19:25:30.014Z,26.89
2018-04-20T19:25:56.269Z,26.85
2018-04-20T19:26:22.362Z,26.9
2018-04-20T19:26:48.536Z,26.85
2018-04-20T19:27:14.675Z,27
2018-04-20T19:27:40.813Z,26.9
2018-04-20T19:28:06.965Z,26.99
2018-04-20T19:28:33.134Z,26.89
2018-04-20T19:28:59.275Z,26.93
2018-04-20T19:29:25.419Z,26.96
2018-04-20T19:29:51.579Z,26.88
2018-04-20T19:30:17.722Z,26.9
2018-04-20T19:30:43.859Z,26.85
2018-04-20T19:31:10.011Z,26.85
2018-04-20T19:31:36.172Z,26.83
2018-04-20T19:32:02.314Z,26.89
2018-04-20T19:32:28.455Z,26.88
2018-04-20T19:32:54.615Z,26.73
2018-04-20T19:33:20.774Z,26.71
2018-04-20T19:33:46.941Z,26.77
2018-04-20T19:34:13.090Z,26.78
2018-04-20T19:34:39.226Z,26.81
2018-04-20T19:35:05.402Z,26.75
2018-04-20T19:35:31.564Z,26.74
2018-04-20T19:35:57.927Z,26.83
2018-04-20T19:36:23.998Z,26.74
2018-04-20T19:36:50.150Z,26.71
2018-04-20T19:37:16.300Z,26.7
2018-04-20T19:37:42.439Z,26.74
2018-04-20T19:38:08.581Z,26.74
2018-04-20T19:38:34.721Z,26.71
2018-04-20T19:39:00.864Z,26.78
2018-04-20T19:39:27.004Z,26.8
2018-04-20T19:39:53.149Z,26.81
2018-04-20T19:40:19.291Z,26.77
2018-04-20T19:40:45.459Z,26.71
2018-04-20T19:41:11.644Z,26.74
2018-04-20T19:41:37.790Z,26.78
2018-04-20T19:42:03.953Z,26.8
2018-04-20T19:42:30.101Z,26.74
2018-04-20T19:42:56.265Z,26.73
2018-04-20T19:43:22.413Z,26.74
2018-04-20T19:43:48.551Z,26.78
2018-04-20T19:44:14.794Z,26.71
2018-04-20T19:44:40.958Z,26.73
2018-04-20T19:45:07.129Z,26.74
2018-04-20T19:45:33.272Z,26.7
2018-04-20T19:45:59.413Z,26.71
2018-04-20T19:46:25.578Z,26.77
2018-04-20T19:46:51.744Z,26.65
2018-04-20T19:47:17.930Z,26.73
2018-04-20T19:47:44.116Z,26.75
2018-04-20T19:48:10.254Z,26.71
2018-04-20T19:48:36.416Z,26.68
2018-04-20T19:49:02.564Z,26.75
2018-04-20T19:49:28.713Z,26.74
2018-04-20T19:49:54.855Z,26.6
2018-04-20T19:50:20.996Z,26.59
2018-04-20T19:50:47.152Z,26.56
2018-04-20T19:51:13.296Z,26.59
2018-04-20T19:51:39.437Z,26.56
2018-04-20T19:52:05.629Z,26.62
2018-04-20T19:52:31.823Z,26.53
2018-04-20T19:52:57.972Z,26.52
2018-04-20T19:53:24.115Z,26.58
2018-04-20T19:53:50.292Z,26.48
2018-04-20T19:54:16.430Z,26.56
2018-04-20T19:54:42.565Z,26.48
2018-04-20T19:55:08.734Z,26.58
2018-04-20T19:55:34.874Z,26.52
2018-04-20T19:56:01.049Z,26.45
2018-04-20T19:56:27.228Z,26.52
2018-04-20T19:56:53.370Z,26.55
2018-04-20T19:57:19.552Z,26.41
2018-04-20T19:57:45.724Z,26.38
2018-04-20T19:58:11.861Z,26.38
2018-04-20T19:58:38.007Z,26.37
2018-04-20T19:59:04.150Z,26.44
2018-04-20T19:59:30.318Z,26.4
2018-04-20T19:59:56.462Z,26.41
2018-04-20T20:00:22.603Z,26.33
2018-04-20T20:00:48.746Z,26.4
2018-04-20T20:01:14.884Z,26.36
2018-04-20T20:01:41.030Z,26.34
2018-04-20T20:02:07.174Z,26.31
2018-04-20T20:02:33.322Z,26.38
2018-04-20T20:02:59.489Z,26.41
2018-04-20T20:03:25.664Z,26.37
2018-04-20T20:03:51.816Z,26.41
2018-04-20T20:04:17.956Z,26.37
2018-04-20T20:04:44.223Z,26.25
2018-04-20T20:05:10.289Z,26.28
2018-04-20T20:05:36.434Z,26.29
2018-04-20T20:06:02.626Z,26.33
2018-04-20T20:06:28.772Z,26.28
2018-04-20T20:06:54.920Z,26.28
2018-04-20T20:07:21.062Z,26.25
2018-04-20T20:07:47.212Z,26.38
2018-04-20T20:08:13.357Z,26.28
2018-04-20T20:08:39.524Z,26.29
2018-04-20T20:09:05.666Z,26.28
2018-04-20T20:09:31.804Z,26.26
2018-04-20T20:09:57.947Z,26.23
2018-04-20T20:10:24.090Z,26.25
2018-04-20T20:10:50.265Z,26.33
2018-04-20T20:11:16.450Z,26.18
2018-04-20T20:11:42.597Z,26.18
2018-04-20T20:12:08.744Z,26.18
2018-04-20T20:12:34.882Z,26.16
2018-04-20T20:13:01.020Z,26.16
2018-04-20T20:13:27.169Z,26.15
2018-04-20T20:13:53.479Z,26.29
2018-04-20T20:14:19.563Z,26.26
2018-04-20T20:14:45.728Z,26.16
2018-04-20T20:15:11.863Z,26.15
2018-04-20T20:15:38.029Z,26.15
2018-04-20T20:16:04.170Z,26.16
2018-04-20T20:16:30.308Z,26.13
2018-04-20T20:16:56.450Z,26.18
2018-04-20T20:17:22.589Z,26.15
2018-04-20T20:17:48.735Z,26.18
2018-04-20T20:18:14.880Z,26.13
2018-04-20T20:18:41.028Z,26.21
2018-04-20T20:19:07.160Z,26.1
2018-04-20T20:19:33.375Z,26.13
2018-04-20T20:19:59.538Z,26.16
2018-04-20T20:20:25.698Z,26.19
2018-04-20T20:20:51.865Z,26.16
2018-04-20T20:21:18.010Z,26.02
2018-04-20T20:21:44.156Z,26.1
2018-04-20T20:22:10.295Z,26.02
2018-04-20T20:22:36.437Z,26.15
2018-04-20T20:23:02.581Z,26.09
2018-04-20T20:23:28.719Z,26.07
2018-04-20T20:23:54.884Z,26.05
2018-04-20T20:24:21.013Z,26
2018-04-20T20:24:47.189Z,26.07
2018-04-20T20:25:13.365Z,26.1
2018-04-20T20:25:39.521Z,26.05
2018-04-20T20:26:05.762Z,25.98
2018-04-20T20:26:31.916Z,26.03
2018-04-20T20:26:58.100Z,26.02
2018-04-20T20:27:24.251Z,26.02
2018-04-20T20:27:50.396Z,25.99
2018-04-20T20:28:16.543Z,25.96
2018-04-20T20:28:42.693Z,25.99
2018-04-20T20:29:08.864Z,25.9
2018-04-20T20:29:35.038Z,25.93
2018-04-20T20:30:01.239Z,25.98
2018-04-20T20:30:27.433Z,25.98
2018-04-20T20:30:53.643Z,25.98
2018-04-20T20:31:19.750Z,25.98
2018-04-20T20:31:45.895Z,25.91
2018-04-20T20:32:12.040Z,25.96
2018-04-20T20:32:38.199Z,26.02
2018-04-20T20:33:04.340Z,25.96
2018-04-20T20:33:30.484Z,25.93
2018-04-20T20:33:56.645Z,25.93
2018-04-20T20:34:22.787Z,25.93
2018-04-20T20:34:48.933Z,25.98
2018-04-20T20:35:15.071Z,25.93
2018-04-20T20:35:41.214Z,26.02
2018-04-20T20:36:07.357Z,25.99
2018-04-20T20:36:33.513Z,25.87
2018-04-20T20:36:59.646Z,25.85
2018-04-20T20:37:25.788Z,25.88
2018-04-20T20:37:51.927Z,25.84
2018-04-20T20:38:18.082Z,25.84
2018-04-20T20:38:44.217Z,25.83
2018-04-20T20:39:10.353Z,25.88
2018-04-20T20:39:36.499Z,25.78
2018-04-20T20:40:02.666Z,25.78
2018-04-20T20:40:28.863Z,25.8
2018-04-20T20:40:54.999Z,25.83
2018-04-20T20:41:21.153Z,25.78
2018-04-20T20:41:47.288Z,25.77
2018-04-20T20:42:13.461Z,25.8
2018-04-20T20:42:39.604Z,25.81
2018-04-20T20:43:05.808Z,25.8
2018-04-20T20:43:31.886Z,25.75
2018-04-20T20:43:58.031Z,25.8
2018-04-20T20:44:24.168Z,25.78
2018-04-20T20:44:50.346Z,25.73
2018-04-20T20:45:16.479Z,25.77
2018-04-20T20:45:42.625Z,25.81
2018-04-20T20:46:08.796Z,25.78
2018-04-20T20:46:34.984Z,25.83
2018-04-20T20:47:01.122Z,25.77
2018-04-20T20:47:27.411Z,25.78
2018-04-20T20:47:53.815Z,25.75
2018-04-20T20:48:20.033Z,25.8
2018-04-20T20:48:46.562Z,25.84
2018-04-20T20:49:12.729Z,25.78
2018-04-20T20:49:38.949Z,25.83
2018-04-20T20:50:05.128Z,25.84
2018-04-20T20:50:31.271Z,25.78
2018-04-20T20:50:57.421Z,25.81
2018-04-20T20:51:23.608Z,25.85
2018-04-20T20:51:49.764Z,25.78
2018-04-20T20:52:15.906Z,25.8
2018-04-20T20:52:42.064Z,25.87
2018-04-20T20:53:08.212Z,25.9
2018-04-20T20:53:34.361Z,25.84
2018-04-20T20:54:00.512Z,25.75
2018-04-20T20:54:26.685Z,25.78
2018-04-20T20:54:52.868Z,25.8
2018-04-20T20:55:19.049Z,25.72
2018-04-20T20:55:45.222Z,25.78
2018-04-20T20:56:11.412Z,25.8
2018-04-20T20:56:37.606Z,25.75
2018-04-20T20:57:03.788Z,25.73
2018-04-20T20:57:29.924Z,25.72
2018-04-20T20:57:56.102Z,25.83
2018-04-20T20:58:22.238Z,25.7
2018-04-20T20:58:48.393Z,25.8
2018-04-20T20:59:14.558Z,25.75
2018-04-20T20:59:40.698Z,25.78
2018-04-20T21:00:06.845Z,25.78
2018-04-20T21:00:32.984Z,25.81
2018-04-20T21:00:59.148Z,25.78
2018-04-20T21:01:25.318Z,25.75
2018-04-20T21:01:51.465Z,25.77
2018-04-20T21:02:17.606Z,25.84
2018-04-20T21:02:43.743Z,25.85
2018-04-20T21:03:09.913Z,25.77
2018-04-20T21:03:36.076Z,25.78
2018-04-20T21:04:02.275Z,25.78
2018-04-20T21:04:28.453Z,25.75
2018-04-20T21:04:54.605Z,25.75
2018-04-20T21:05:20.786Z,25.8
2018-04-20T21:05:46.962Z,25.78
2018-04-20T21:06:13.140Z,25.8
2018-04-20T21:06:39.338Z,25.8
2018-04-20T21:07:05.476Z,25.81
2018-04-20T21:07:31.639Z,25.78
2018-04-20T21:07:57.785Z,25.78
2018-04-20T21:08:23.971Z,25.77
2018-04-20T21:08:50.126Z,25.84
2018-04-20T21:09:16.297Z,25.77
2018-04-20T21:09:42.491Z,25.78
2018-04-20T21:10:08.614Z,25.8
2018-04-20T21:10:34.775Z,25.83
2018-04-20T21:11:00.914Z,25.81
2018-04-20T21:11:27.169Z,25.77
2018-04-20T21:11:53.273Z,25.69
2018-04-20T21:12:19.437Z,25.7
2018-04-20T21:12:45.582Z,25.8
2018-04-20T21:13:11.725Z,25.81
2018-04-20T21:13:37.869Z,25.8
2018-04-20T21:14:04.030Z,25.8
2018-04-20T21:14:30.191Z,25.78
2018-04-20T21:14:56.339Z,25.75
2018-04-20T21:15:22.495Z,25.73
2018-04-20T21:15:48.642Z,25.63
2018-04-20T21:16:14.844Z,25.59
2018-04-20T21:16:41.044Z,25.73
2018-04-20T21:17:07.219Z,25.78
2018-04-20T21:17:33.387Z,25.78
2018-04-20T21:17:59.548Z,25.68
2018-04-20T21:18:25.687Z,25.55
2018-04-20T21:18:51.860Z,25.72
2018-04-20T21:19:18.077Z,25.77
2018-04-20T21:19:44.233Z,25.63
2018-04-20T21:20:10.376Z,25.65
2018-04-20T21:20:36.591Z,25.68
2018-04-20T21:21:02.797Z,25.66
2018-04-20T21:21:28.942Z,25.69
2018-04-20T21:21:55.183Z,25.75
2018-04-20T21:22:21.273Z,25.68
2018-04-20T21:22:47.413Z,25.65
2018-04-20T21:23:13.571Z,25.59
2018-04-20T21:23:39.797Z,25.59
2018-04-20T21:24:05.933Z,25.58
2018-04-20T21:24:32.106Z,25.6
2018-04-20T21:24:58.228Z,25.66
2018-04-20T21:25:24.376Z,25.6
2018-04-20T21:25:50.558Z,25.58
2018-04-20T21:26:16.704Z,25.58
2018-04-20T21:26:42.859Z,25.6
2018-04-20T21:27:09.001Z,25.65
2018-04-20T21:27:35.145Z,25.51
2018-04-20T21:28:01.346Z,25.55
2018-04-20T21:28:27.487Z,25.59
2018-04-20T21:28:53.629Z,25.62
2018-04-20T21:29:19.767Z,25.62
2018-04-20T21:29:45.909Z,25.62
2018-04-20T21:30:12.055Z,25.62
2018-04-20T21:30:38.200Z,25.62
2018-04-20T21:31:04.346Z,25.55
2018-04-20T21:31:30.488Z,25.6
2018-04-20T21:31:56.647Z,25.65
2018-04-20T21:32:22.793Z,25.62
2018-04-20T21:32:48.940Z,25.68
2018-04-20T21:33:15.346Z,25.59
2018-04-20T21:33:41.255Z,25.69
2018-04-20T21:34:07.416Z,25.63
2018-04-20T21:34:33.579Z,25.62
2018-04-20T21:34:59.724Z,25.6
2018-04-20T21:35:25.885Z,25.55
2018-04-20T21:35:52.023Z,25.54
2018-04-20T21:36:18.195Z,25.58
2018-04-20T21:36:44.329Z,25.54
2018-04-20T21:37:10.472Z,25.55
2018-04-20T21:37:36.608Z,25.65
2018-04-20T21:38:02.754Z,25.53
2018-04-20T21:38:28.954Z,25.54
2018-04-20T21:38:55.116Z,25.55
2018-04-20T21:39:21.326Z,25.54
2018-04-20T21:39:47.497Z,25.54
2018-04-20T21:40:13.652Z,25.6
2018-04-20T21:40:39.788Z,25.48
2018-04-20T21:41:05.945Z,25.59
2018-04-20T21:41:32.122Z,25.48
2018-04-20T21:41:58.359Z,25.47
2018-04-20T21:42:24.501Z,25.41
2018-04-20T21:42:50.686Z,25.46
2018-04-20T21:43:16.847Z,25.4
2018-04-20T21:43:43.334Z,25.4
2018-04-20T21:44:09.535Z,25.41
2018-04-20T21:44:35.720Z,25.43
2018-04-20T21:45:01.898Z,25.4
2018-04-20T21:45:28.148Z,25.4
2018-04-20T21:45:54.340Z,25.32
2018-04-20T21:46:20.492Z,25.31
2018-04-20T21:46:46.630Z,25.29
2018-04-20T21:47:12.803Z,25.32
2018-04-20T21:47:38.970Z,25.33
2018-04-20T21:48:05.108Z,25.31
2018-04-20T21:48:31.269Z,25.25
2018-04-20T21:48:57.413Z,25.21
2018-04-20T21:49:23.557Z,25.23
2018-04-20T21:49:49.695Z,25.26
2018-04-20T21:50:15.840Z,25.23
2018-04-20T21:50:41.986Z,25.21
2018-04-20T21:51:08.121Z,25.18
2018-04-20T21:51:34.266Z,25.22
2018-04-20T21:52:00.410Z,25.16
2018-04-20T21:52:26.549Z,25.21
2018-04-20T21:52:52.716Z,25.16
2018-04-20T21:53:18.883Z,25.17
2018-04-20T21:53:45.026Z,25.22
2018-04-20T21:54:11.163Z,25.22
2018-04-20T21:54:37.348Z,25.17